Time;durP1;ratioP1;P1;durP2;ratioP2;P2;SDS_P1;SDS_P2;PMS_P1;PMS_P2;Temp;Humidity;BMP_temperature;BMP_pressure;BME280_temperature;BME280_humidity;BME280_pressure;Samples;Min_cycle;Max_cycle;Signal;HPM_P1;HPM_P2
2022/06/10 00:02:23;;;;;;;16.58;2.47;;;;;;;14.29;100.00;102069.84;5227309;28;20025;-71
2022/06/10 00:04:53;;;;;;;10.02;1.95;;;;;;;14.30;100.00;102057.19;5226782;28;20090;-71
2022/06/10 00:07:24;;;;;;;9.73;1.90;;;;;;;14.30;100.00;102071.53;5226634;28;20013;-71
2022/06/10 00:09:54;;;;;;;8.88;2.28;;;;;;;14.34;100.00;102061.28;5213558;28;20024;-70
2022/06/10 00:12:25;;;;;;;7.63;2.10;;;;;;;14.35;100.00;102057.56;5226797;28;20086;-71
2022/06/10 00:14:55;;;;;;;14.52;3.00;;;;;;;14.38;100.00;102054.56;5225916;28;20031;-71
2022/06/10 00:17:26;;;;;;;15.15;2.38;;;;;;;14.40;100.00;102055.22;5213801;28;20049;-72
2022/06/10 00:19:56;;;;;;;13.50;3.53;;;;;;;14.40;100.00;102061.47;5212011;28;20025;-71
2022/06/10 00:22:27;;;;;;;11.73;2.03;;;;;;;14.41;100.00;102065.03;5212901;28;20535;-71
2022/06/10 00:24:58;;;;;;;15.43;2.33;;;;;;;14.42;100.00;102064.88;5213585;28;20056;-71
2022/06/10 00:27:28;;;;;;;11.40;2.97;;;;;;;14.43;100.00;102058.44;5221708;28;20037;-72
2022/06/10 00:29:59;;;;;;;10.65;1.90;;;;;;;14.44;100.00;102057.44;5226714;28;20029;-71
2022/06/10 00:32:29;;;;;;;9.27;1.90;;;;;;;14.44;100.00;102059.28;5224185;28;20162;-71
2022/06/10 00:35:00;;;;;;;15.77;2.00;;;;;;;14.42;100.00;102062.16;5226433;28;20021;-71
2022/06/10 00:37:30;;;;;;;9.95;1.85;;;;;;;14.45;100.00;102055.56;5226229;28;20021;-71
2022/06/10 00:40:03;;;;;;;8.55;2.08;;;;;;;14.44;100.00;102051.19;5223008;28;20032;-72
2022/06/10 00:42:35;;;;;;;10.73;2.25;;;;;;;14.45;100.00;102048.31;5219849;28;20110;-71
2022/06/10 00:45:44;;;;;;;9.80;1.85;;;;;;;14.47;100.00;102045.47;5204899;28;20033;-71
2022/06/10 00:48:20;;;;;;;10.95;3.25;;;;;;;14.48;100.00;102044.50;5218833;28;20486;-71
2022/06/10 00:50:51;;;;;;;11.02;2.13;;;;;;;14.47;100.00;102049.06;5205530;28;20017;-71
2022/06/10 00:53:26;;;;;;;7.40;1.60;;;;;;;14.48;100.00;102045.34;5220341;28;20478;-70
2022/06/10 00:55:58;;;;;;;15.57;2.17;;;;;;;14.50;100.00;102053.28;5225876;28;20025;-70
2022/06/10 00:59:06;;;;;;;23.55;3.03;;;;;;;14.52;100.00;102055.81;5225732;28;20051;-71
2022/06/10 01:01:37;;;;;;;24.73;2.35;;;;;;;14.50;100.00;102048.72;5208998;28;20505;-71
2022/06/10 01:04:09;;;;;;;11.95;2.10;;;;;;;14.53;100.00;102057.50;5204795;28;20071;-70
2022/06/10 01:06:40;;;;;;;12.70;1.95;;;;;;;14.53;100.00;102052.97;5205426;28;20025;-70
2022/06/10 01:09:11;;;;;;;6.25;1.67;;;;;;;14.56;100.00;102054.47;5205230;28;20028;-71
2022/06/10 01:12:11;;;;;;;15.90;1.98;;;;;;;14.56;100.00;102058.03;5218290;28;20021;-71
2022/06/10 01:14:44;;;;;;;12.07;1.92;;;;;;;14.56;100.00;102058.03;5205006;28;20039;-71
2022/06/10 01:17:30;;;;;;;18.27;3.90;;;;;;;14.58;100.00;102056.00;5205174;28;20153;-71
2022/06/10 01:20:06;;;;;;;11.18;1.80;;;;;;;14.59;100.00;102054.16;5204921;28;20479;-71
2022/06/10 01:22:38;;;;;;;10.32;1.70;;;;;;;14.58;100.00;102056.00;5204711;28;20053;-71
2022/06/10 01:25:28;;;;;;;9.15;1.80;;;;;;;14.56;100.00;102054.47;5204912;28;20044;-71
2022/06/10 01:28:05;;;;;;;11.95;2.58;;;;;;;14.57;100.00;102054.31;5212449;28;20033;-71
2022/06/10 01:31:07;;;;;;;19.30;2.15;;;;;;;14.57;100.00;102057.03;5217852;28;20032;-71
2022/06/10 01:34:15;;;;;;;5.30;1.80;;;;;;;14.59;100.00;102052.28;5217212;28;20033;-72
2022/06/10 01:37:03;;;;;;;12.88;1.95;;;;;;;14.61;100.00;102052.13;5204727;28;20776;-71
2022/06/10 01:39:53;;;;;;;14.75;2.28;;;;;;;14.62;100.00;102057.38;5207311;28;20022;-70
2022/06/10 01:42:45;;;;;;;15.68;2.38;;;;;;;14.61;100.00;102055.69;5209334;28;20033;-71
2022/06/10 01:45:34;;;;;;;14.98;2.70;;;;;;;14.61;100.00;102053.00;5210614;28;20371;-70
2022/06/10 01:48:30;;;;;;;13.98;2.22;;;;;;;14.60;100.00;102053.13;5205531;28;20184;-72
2022/06/10 01:51:11;;;;;;;11.80;1.92;;;;;;;14.60;100.00;102047.75;5204789;28;20067;-71
2022/06/10 01:54:03;;;;;;;12.43;2.10;;;;;;;14.61;100.00;102047.59;5221796;28;20033;-71
2022/06/10 01:56:42;;;;;;;10.20;2.13;;;;;;;14.59;100.00;102043.34;5210407;28;20113;-71
2022/06/10 01:59:31;;;;;;;11.45;2.58;;;;;;;14.59;100.00;102033.41;5213428;28;20386;-71
2022/06/10 02:02:07;;;;;;;10.65;1.98;;;;;;;14.64;100.00;102033.75;5224159;28;20036;-71
2022/06/10 02:04:54;;;;;;;10.02;2.58;;;;;;;14.64;100.00;102047.25;5224440;28;20376;-71
2022/06/10 02:07:32;;;;;;;6.30;2.28;;;;;;;14.64;100.00;102052.66;5204546;28;20121;-69
2022/06/10 02:10:25;;;;;;;8.02;2.13;;;;;;;14.64;100.00;102058.06;5217866;28;20108;-70
2022/06/10 02:13:02;;;;;;;7.63;2.17;;;;;;;14.66;100.00;102049.78;5206552;28;20026;-70
2022/06/10 02:15:38;;;;;;;10.27;2.30;;;;;;;14.67;100.00;102049.63;5224489;28;20433;-70
2022/06/10 02:18:13;;;;;;;14.50;2.70;;;;;;;14.65;100.00;102050.78;5205918;28;20475;-70
2022/06/10 02:20:50;;;;;;;8.27;2.40;;;;;;;14.64;100.00;102051.81;5203423;28;20037;-70
2022/06/10 02:23:25;;;;;;;16.35;2.65;;;;;;;14.64;100.00;102049.94;5211959;28;20025;-70
2022/06/10 02:25:58;;;;;;;11.20;2.60;;;;;;;14.69;100.00;102055.72;5208608;28;20032;-70
2022/06/10 02:28:35;;;;;;;11.40;2.22;;;;;;;14.72;100.00;102060.78;5212354;28;20051;-70
2022/06/10 02:31:25;;;;;;;10.73;2.28;;;;;;;14.70;100.00;102057.41;5208083;28;20057;-70
2022/06/10 02:33:56;;;;;;;14.07;2.53;;;;;;;14.72;100.00;102063.50;5209671;28;20056;-70
2022/06/10 02:36:37;;;;;;;7.47;2.15;;;;;;;14.71;100.00;102064.50;5212453;28;20025;-71
2022/06/10 02:39:21;;;;;;;10.15;2.50;;;;;;;14.72;100.00;102068.06;5214934;28;20060;-70
2022/06/10 02:42:12;;;;;;;13.43;2.83;;;;;;;14.70;100.00;102070.91;5210152;28;20029;-70
2022/06/10 02:45:08;;;;;;;15.70;3.00;;;;;;;14.70;100.00;102075.47;5210470;28;20029;-70
2022/06/10 02:47:54;;;;;;;;;;;;;;;14.71;100.00;102074.47;5210890;28;20025;-70
2022/06/10 02:50:25;;;;;;;12.33;2.10;;;;;;;14.69;100.00;102074.63;5227278;28;19909;-70
2022/06/10 02:52:57;;;;;;;14.07;2.88;;;;;;;14.70;100.00;102070.06;5231456;28;20263;-70
2022/06/10 02:55:27;;;;;;;17.08;2.88;;;;;;;14.67;100.00;102079.34;5230922;28;20032;-70
2022/06/10 03:04:24;;;;;;;10.45;2.58;;;;;;;14.68;100.00;102072.94;5217789;28;20060;-70
2022/06/10 03:07:13;;;;;;;8.02;2.20;;;;;;;14.68;100.00;102083.72;5225718;28;20029;-70
2022/06/10 03:10:15;;;;;;;15.48;2.67;;;;;;;14.68;100.00;102075.63;5210257;28;20029;-71
2022/06/10 03:13:02;;;;;;;9.93;3.08;;;;;;;14.73;100.00;102086.78;5223236;28;20033;-71
2022/06/10 03:15:49;;;;;;;17.27;3.13;;;;;;;14.77;100.00;102081.91;5220236;28;20532;-71
2022/06/10 03:18:32;;;;;;;13.07;3.47;;;;;;;14.81;100.00;102079.72;5230227;28;20059;-70
2022/06/10 03:21:28;;;;;;;15.70;2.63;;;;;;;14.80;100.00;102076.16;5215537;28;20514;-70
2022/06/10 03:24:35;;;;;;;12.65;3.22;;;;;;;14.81;100.00;102082.41;5210413;28;20497;-71
2022/06/10 03:27:25;;;;;;;9.07;2.35;;;;;;;14.79;100.00;102084.44;5217726;28;20033;-70
2022/06/10 03:30:05;;;;;;;6.03;1.90;;;;;;;14.76;100.00;102075.66;5218743;28;20036;-70
2022/06/10 03:32:57;;;;;;;9.30;2.97;;;;;;;14.76;100.00;102080.22;5213447;28;20386;-70
2022/06/10 03:35:34;;;;;;;11.00;2.60;;;;;;;14.72;100.00;102079.69;5209906;28;20078;-70
2022/06/10 03:38:06;;;;;;;9.02;2.42;;;;;;;14.72;100.00;102077.00;5219051;28;20029;-71
2022/06/10 03:40:37;;;;;;;15.65;2.60;;;;;;;14.72;100.00;102073.47;5224155;28;20040;-71
2022/06/10 03:43:11;;;;;;;5.18;2.10;;;;;;;14.73;100.00;102069.75;5210199;28;20033;-71
2022/06/10 03:45:47;;;;;;;7.90;2.08;;;;;;;14.75;100.00;102070.41;5209744;28;20124;-70
2022/06/10 03:48:21;;;;;;;10.05;2.28;;;;;;;14.74;100.00;102072.28;5209763;28;20111;-71
2022/06/10 03:50:52;;;;;;;11.00;2.30;;;;;;;14.76;100.00;102074.81;5212979;28;20088;-71
2022/06/10 03:53:25;;;;;;;15.50;2.20;;;;;;;14.77;100.00;102077.34;5226522;28;20027;-71
2022/06/10 03:55:55;;;;;;;6.85;1.98;;;;;;;14.80;100.00;102084.28;5206653;28;20022;-71
2022/06/10 03:58:26;;;;;;;8.75;1.88;;;;;;;14.80;100.00;102078.03;5220357;28;20344;-71
2022/06/10 04:00:58;;;;;;;11.07;2.33;;;;;;;14.82;100.00;102076.88;5206445;28;20021;-71
2022/06/10 04:03:28;;;;;;;13.30;2.25;;;;;;;14.84;100.00;102091.03;5206518;28;20040;-71
2022/06/10 04:05:59;;;;;;;9.77;1.98;;;;;;;14.87;100.00;102090.72;5206499;28;20018;-70
2022/06/10 04:08:30;;;;;;;13.43;2.50;;;;;;;14.88;100.00;102095.13;5224492;28;20371;-71
2022/06/10 04:11:00;;;;;;;10.18;2.28;;;;;;;14.91;100.00;102093.91;5214876;28;20078;-71
2022/06/10 04:13:31;;;;;;;16.10;2.38;;;;;;;14.96;100.00;102091.56;5225346;28;20478;-71
2022/06/10 04:16:02;;;;;;;10.98;1.98;;;;;;;14.97;100.00;102093.28;5214902;28;20025;-71
2022/06/10 04:18:32;;;;;;;7.28;2.95;;;;;;;15.00;100.00;102087.53;5206459;28;20029;-70
2022/06/10 04:21:04;;;;;;;11.80;2.55;;;;;;;15.01;100.00;102086.56;5206221;28;20021;-71
2022/06/10 04:23:35;;;;;;;18.80;3.13;;;;;;;15.03;100.00;102093.47;5214476;28;20025;-71
2022/06/10 04:26:06;;;;;;;19.08;2.95;;;;;;;15.03;100.00;102095.31;5222700;28;20068;-71
2022/06/10 04:28:36;;;;;;;10.90;2.47;;;;;;;15.02;100.00;102091.78;5214591;28;20032;-71
2022/06/10 04:31:07;;;;;;;15.02;2.10;;;;;;;15.05;100.00;102095.16;5205820;28;20021;-71
2022/06/10 04:33:37;;;;;;;13.90;2.05;;;;;;;15.07;100.00;102085.88;5206125;28;20087;-71
2022/06/10 04:36:09;;;;;;;11.85;2.47;;;;;;;15.09;100.00;102089.25;5205260;28;20033;-72
2022/06/10 04:38:40;;;;;;;8.75;1.92;;;;;;;15.10;100.00;102090.09;5205896;28;20360;-72
2022/06/10 04:41:11;;;;;;;10.15;2.20;;;;;;;15.08;100.00;102084.88;5216630;28;20075;-71
2022/06/10 04:43:42;;;;;;;7.22;2.30;;;;;;;15.12;100.00;102088.09;5207395;28;20056;-71
2022/06/10 04:46:24;;;;;;;11.57;3.80;;;;;;;15.18;100.00;102085.56;5226243;28;20029;-71
2022/06/10 04:48:54;;;;;;;19.77;2.72;;;;;;;15.22;100.00;102084.22;5221418;28;20037;-72
2022/06/10 04:51:25;;;;;;;11.27;2.78;;;;;;;15.25;100.00;102081.16;5205694;28;20025;-71
2022/06/10 04:53:56;;;;;;;11.00;2.80;;;;;;;15.28;100.00;102086.25;5223793;28;20017;-71
2022/06/10 04:56:26;;;;;;;8.10;2.60;;;;;;;15.28;100.00;102080.00;5225782;28;20475;-71
2022/06/10 04:58:57;;;;;;;15.80;2.42;;;;;;;15.33;100.00;102084.91;5218087;28;20025;-71
2022/06/10 05:01:27;;;;;;;10.07;1.92;;;;;;;15.35;100.00;102089.13;5205654;28;20036;-70
2022/06/10 05:03:58;;;;;;;10.95;1.80;;;;;;;15.32;100.00;102083.22;5226332;28;20029;-69
2022/06/10 05:06:29;;;;;;;11.50;1.77;;;;;;;15.34;100.00;102083.88;5225708;28;20079;-69
2022/06/10 05:09:00;;;;;;;12.32;2.35;;;;;;;15.35;100.00;102082.88;5215351;28;20024;-69
2022/06/10 05:11:30;;;;;;;8.05;1.52;;;;;;;15.36;100.00;102080.03;5222839;28;20474;-69
2022/06/10 05:14:01;;;;;;;9.48;2.75;;;;;;;15.39;100.00;102084.22;5214594;28;20025;-69
2022/06/10 05:16:31;;;;;;;11.00;2.10;;;;;;;15.39;100.00;102076.97;5218014;28;20021;-69
2022/06/10 05:19:02;;;;;;;10.25;2.45;;;;;;;15.40;100.00;102073.25;5205612;28;20026;-69
2022/06/10 05:21:32;;;;;;;8.30;2.10;;;;;;;15.40;100.00;102069.69;5217079;28;20037;-69
2022/06/10 05:24:03;;;;;;;6.53;1.92;;;;;;;15.46;100.00;102079.81;5204539;28;20078;-69
2022/06/10 05:26:34;;;;;;;9.55;2.67;;;;;;;15.45;100.00;102083.56;5207694;28;20033;-69
2022/06/10 05:29:04;;;;;;;23.85;3.08;;;;;;;15.46;100.00;102083.41;5210534;28;20044;-69
2022/06/10 05:31:35;;;;;;;14.52;2.63;;;;;;;15.47;100.00;102081.53;5205133;28;20120;-70
2022/06/10 05:36:54;;;;;;;13.40;2.30;;;;;;;15.52;100.00;102082.72;5217389;28;20474;-69
2022/06/10 05:39:25;;;;;;;11.07;2.03;;;;;;;15.53;100.00;102081.69;5209250;28;20021;-69
2022/06/10 05:42:06;;;;;;;17.25;2.35;;;;;;;15.59;100.00;102085.59;5225067;28;20029;-69
2022/06/10 05:44:39;;;;;;;12.10;2.25;;;;;;;15.60;100.00;102084.56;5225331;28;20379;-69
2022/06/10 05:47:14;;;;;;;14.13;2.53;;;;;;;15.66;100.00;102080.38;5210226;28;20052;-70
2022/06/10 05:49:46;;;;;;;10.70;2.30;;;;;;;15.72;100.00;102091.38;5214558;28;20021;-69
2022/06/10 05:52:20;;;;;;;10.82;2.42;;;;;;;15.74;100.00;102077.66;5209814;28;20604;-69
2022/06/10 05:54:54;;;;;;;9.15;2.10;;;;;;;15.79;100.00;102076.13;5211675;28;20047;-69
2022/06/10 05:57:24;;;;;;;11.50;2.50;;;;;;;15.84;100.00;102078.34;5211691;28;20116;-70
2022/06/10 05:59:55;;;;;;;12.50;2.42;;;;;;;15.94;100.00;102080.84;5207666;28;20356;-71
2022/06/10 06:02:26;;;;;;;12.40;2.20;;;;;;;15.95;100.00;102080.69;5206699;28;20135;-70
2022/06/10 06:04:58;;;;;;;8.80;2.20;;;;;;;15.99;100.00;102089.31;5217939;28;20402;-71
2022/06/10 06:07:29;;;;;;;12.48;2.78;;;;;;;16.01;100.00;102088.13;5222128;28;20024;-69
2022/06/10 06:09:59;;;;;;;8.55;1.88;;;;;;;16.07;100.00;102091.16;5222200;28;20031;-69
2022/06/10 06:12:30;;;;;;;9.07;2.13;;;;;;;16.11;100.00;102095.19;5221743;28;20024;-70
2022/06/10 06:15:00;;;;;;;13.88;2.78;;;;;;;16.15;100.00;102091.97;5221655;28;20036;-70
2022/06/10 06:17:31;;;;;;;10.15;2.67;;;;;;;16.19;100.00;102100.59;5220078;28;20572;-69
2022/06/10 06:20:03;;;;;;;12.48;2.20;;;;;;;16.23;100.00;102107.38;5222212;28;20052;-70
2022/06/10 06:22:34;;;;;;;15.18;2.30;;;;;;;16.27;100.00;102101.44;5208492;28;20033;-69
2022/06/10 06:25:05;;;;;;;9.68;2.50;;;;;;;16.31;100.00;102102.78;5221908;28;20059;-69
2022/06/10 06:27:36;;;;;;;9.43;2.20;;;;;;;16.39;100.00;102118.16;5216906;28;20520;-69
2022/06/10 06:30:08;;;;;;;14.00;2.28;;;;;;;16.50;100.00;102112.34;5221817;28;20031;-70
2022/06/10 06:32:44;;;;;;;12.10;2.92;;;;;;;16.56;100.00;102117.06;5221578;28;20017;-70
2022/06/10 06:35:15;;;;;;;;;;;;;;;16.55;100.00;102120.81;5221432;28;20028;-71
2022/06/10 06:37:46;;;;;;;11.77;2.08;;;;;;;16.62;100.00;102128.22;5221747;28;20299;-69
2022/06/10 06:40:17;;;;;;;12.20;3.10;;;;;;;16.64;100.00;102123.50;5210746;28;20017;-70
2022/06/10 06:42:48;;;;;;;11.55;2.60;;;;;;;16.66;100.00;102127.69;5201942;28;20052;-69
2022/06/10 06:45:23;;;;;;;15.23;3.15;;;;;;;16.71;100.00;102129.88;5215153;28;20028;-69
2022/06/10 06:47:54;;;;;;;8.05;2.05;;;;;;;16.73;100.00;102131.44;5220858;28;20039;-69
2022/06/10 06:50:29;;;;;;;12.68;2.25;;;;;;;16.85;100.00;102120.22;5217976;28;20017;-69
2022/06/10 06:52:59;;;;;;;10.65;2.30;;;;;;;16.88;100.00;102128.00;5212938;28;20108;-70
2022/06/10 06:55:30;;;;;;;13.30;2.67;;;;;;;16.98;100.00;102123.22;5221419;28;20021;-69
2022/06/10 06:58:01;;;;;;;6.13;2.78;;;;;;;17.07;100.00;102133.00;5221396;28;20025;-69
2022/06/10 07:00:32;;;;;;;10.95;2.50;;;;;;;17.15;100.00;102127.50;5221465;28;20028;-70
2022/06/10 07:03:04;;;;;;;8.43;2.45;;;;;;;17.24;100.00;102137.28;5221942;28;20425;-70
2022/06/10 07:05:35;;;;;;;10.20;2.45;;;;;;;17.27;100.00;102134.22;5220857;28;20025;-70
2022/06/10 07:08:06;;;;;;;10.88;2.58;;;;;;;17.38;100.00;102134.84;5218946;28;20078;-70
2022/06/10 07:10:36;;;;;;;12.40;3.45;;;;;;;17.47;100.00;102133.72;5210576;28;20421;-70
2022/06/10 07:13:08;;;;;;;9.77;2.60;;;;;;;17.49;100.00;102139.84;5217670;28;20501;-70
2022/06/10 07:15:42;;;;;;;10.63;3.08;;;;;;;17.62;100.00;102131.94;5211852;28;20479;-70
2022/06/10 07:18:13;;;;;;;8.50;1.90;;;;;;;17.66;100.00;102135.97;5207703;28;20017;-70
2022/06/10 07:20:44;;;;;;;8.27;2.40;;;;;;;17.79;100.00;102138.13;5221134;28;20389;-70
2022/06/10 07:23:16;;;;;;;14.63;2.92;;;;;;;17.80;100.00;102137.06;5221463;28;20434;-70
2022/06/10 07:25:47;;;;;;;12.82;2.25;;;;;;;17.96;100.00;102139.66;5222205;28;20021;-70
2022/06/10 07:28:18;;;;;;;10.38;2.72;;;;;;;18.09;100.00;102144.47;5221323;28;20031;-70
2022/06/10 07:30:49;;;;;;;10.77;2.20;;;;;;;18.24;100.00;102145.31;5222970;28;20032;-70
2022/06/10 07:33:19;;;;;;;14.40;2.95;;;;;;;18.34;100.00;102140.47;5214000;28;20469;-70
2022/06/10 07:35:50;;;;;;;11.13;2.53;;;;;;;18.46;100.00;102140.00;5223986;28;20040;-70
2022/06/10 07:38:20;;;;;;;8.45;2.65;;;;;;;18.36;100.00;102140.28;5212743;28;20542;-70
2022/06/10 07:43:42;;;;;;;18.13;2.60;;;;;;;18.24;100.00;102142.59;5218913;28;20290;-70
2022/06/10 07:46:16;;;;;;;14.73;2.35;;;;;;;18.36;100.00;102135.69;5223516;28;20045;-70
2022/06/10 07:48:47;;;;;;;16.35;2.80;;;;;;;18.68;100.00;102141.81;5224789;28;20055;-70
2022/06/10 07:51:19;;;;;;;12.35;2.28;;;;;;;18.81;100.00;102141.13;5224750;28;20089;-70
2022/06/10 07:53:50;;;;;;;13.23;2.88;;;;;;;18.82;100.00;102134.66;5224983;28;20071;-70
2022/06/10 07:56:22;;;;;;;10.68;2.83;;;;;;;19.08;100.00;102143.16;5223992;28;20068;-70
2022/06/10 07:58:53;;;;;;;11.43;2.30;;;;;;;19.39;100.00;102140.16;5224663;28;20020;-70
2022/06/10 08:01:25;;;;;;;8.95;2.70;;;;;;;19.39;100.00;102136.59;5224465;28;20029;-70
2022/06/10 08:03:56;;;;;;;14.82;2.33;;;;;;;19.65;100.00;102134.16;5216714;28;20451;-70
2022/06/10 08:06:29;;;;;;;11.30;2.47;;;;;;;19.66;100.00;102138.56;5203405;28;20022;-70
2022/06/10 08:08:59;;;;;;;13.77;2.10;;;;;;;19.79;100.00;102145.19;5204123;28;20077;-70
2022/06/10 08:11:30;;;;;;;11.93;2.30;;;;;;;19.83;100.00;102150.06;5220935;28;20025;-70
2022/06/10 08:14:01;;;;;;;14.65;2.78;;;;;;;19.86;100.00;102144.19;5224526;28;20036;-70
2022/06/10 08:16:33;;;;;;;13.40;2.72;;;;;;;19.92;100.00;102148.00;5217671;28;20022;-70
2022/06/10 08:19:04;;;;;;;14.07;2.72;;;;;;;20.10;100.00;102150.25;5203306;28;20133;-70
2022/06/10 08:24:24;;;;;;;11.38;2.88;;;;;;;20.95;100.00;102158.16;5223797;28;20471;-70
2022/06/10 08:26:55;;;;;;;9.23;2.83;;;;;;;20.99;100.00;102157.75;5213997;28;20108;-70
2022/06/10 08:29:26;;;;;;;10.93;2.50;;;;;;;21.37;100.00;102155.38;5220769;28;20021;-70
2022/06/10 08:31:57;;;;;;;15.10;2.58;;;;;;;21.29;100.00;102150.94;5224682;28;20033;-70
2022/06/10 08:34:27;;;;;;;9.68;2.17;;;;;;;21.36;100.00;102156.44;5223382;28;20731;-70
2022/06/10 08:37:01;;;;;;;12.25;2.88;;;;;;;21.09;100.00;102156.31;5211089;28;20095;-71
2022/06/10 08:39:32;;;;;;;13.50;3.25;;;;;;;20.84;100.00;102158.75;5217777;28;20518;-70
2022/06/10 08:42:23;;;;;;;15.45;3.17;;;;;;;20.66;100.00;102144.78;5204913;28;20060;-70
2022/06/10 08:44:57;;;;;;;10.50;2.58;;;;;;;20.62;100.00;102147.06;5211490;28;20017;-70
2022/06/10 08:48:02;;;;;;;12.87;3.10;;;;;;;20.53;100.00;102147.44;5222932;28;20029;-70
2022/06/10 08:50:52;;;;;;;12.07;2.83;;;;;;;20.85;100.00;102145.94;5208655;28;20032;-70
2022/06/10 08:53:41;;;;;;;13.05;2.63;;;;;;;21.63;100.00;102151.84;5224039;28;20021;-70
2022/06/10 08:56:17;;;;;;;16.23;3.20;;;;;;;21.30;100.00;102152.63;5223533;28;20033;-70
2022/06/10 08:59:06;;;;;;;15.70;2.83;;;;;;;21.37;100.00;102148.03;5223240;28;20486;-70
2022/06/10 09:02:04;;;;;;;9.70;2.60;;;;;;;21.39;100.00;102150.56;5221123;28;20095;-70
2022/06/10 09:04:57;;;;;;;12.23;3.00;;;;;;;21.98;100.00;102150.63;5215791;28;20051;-70
2022/06/10 09:07:36;;;;;;;16.90;2.72;;;;;;;22.49;100.00;102151.84;5213392;28;20057;-71
2022/06/10 09:10:33;;;;;;;11.70;2.97;;;;;;;22.28;100.00;102149.38;5221616;28;20021;-71
2022/06/10 09:13:42;;;;;;;11.82;2.97;;;;;;;22.32;100.00;102148.72;5223254;28;20060;-70
2022/06/10 09:16:30;;;;;;;13.65;3.35;;;;;;;22.01;100.00;102138.44;5220029;28;20032;-71
2022/06/10 09:19:07;;;;;;;16.98;3.20;;;;;;;22.42;100.00;102146.41;5214641;28;20078;-71
2022/06/10 09:21:49;;;;;;;13.77;3.28;;;;;;;22.29;100.00;102151.03;5222823;28;20450;-71
2022/06/10 09:24:28;;;;;;;12.10;2.78;;;;;;;23.06;100.00;102152.13;5209149;28;20025;-71
2022/06/10 09:27:06;;;;;;;15.15;2.97;;;;;;;23.85;100.00;102150.81;5217085;28;20014;-71
2022/06/10 09:29:38;;;;;;;7.68;2.72;;;;;;;24.61;100.00;102144.22;5221484;28;20091;-71
2022/06/10 09:32:30;;;;;;;11.30;3.00;;;;;;;24.44;100.00;102147.53;5222877;28;20437;-71
2022/06/10 09:35:34;;;;;;;11.65;3.03;;;;;;;24.78;100.00;102151.59;5222503;28;20037;-71
2022/06/10 09:38:39;;;;;;;10.98;2.92;;;;;;;24.25;100.00;102149.41;5222822;28;20029;-71
2022/06/10 09:41:17;;;;;;;9.07;2.88;;;;;;;24.46;100.00;102142.66;5204410;28;20029;-71
2022/06/10 09:44:25;;;;;;;12.38;3.25;;;;;;;23.28;100.00;102142.50;5217492;28;20021;-71
2022/06/10 09:47:17;;;;;;;10.82;3.30;;;;;;;23.47;100.00;102137.97;5222048;28;20107;-71
2022/06/10 09:49:59;;;;;;;13.85;3.20;;;;;;;23.42;100.00;102141.38;5222767;28;20116;-71
2022/06/10 09:52:36;;;;;;;7.30;2.25;;;;;;;23.45;100.00;102140.13;5214969;28;20359;-71
2022/06/10 09:55:18;;;;;;;12.82;3.35;;;;;;;23.03;100.00;102147.91;5217174;28;20757;-71
2022/06/10 09:58:13;;;;;;;13.73;2.92;;;;;;;22.98;100.00;102143.09;5222609;28;20638;-71
2022/06/10 10:01:20;;;;;;;12.07;3.05;;;;;;;23.31;100.00;102150.31;5222860;28;20025;-71
2022/06/10 10:04:20;;;;;;;11.73;3.13;;;;;;;23.92;100.00;102141.47;5222397;28;20094;-71
2022/06/10 10:07:01;;;;;;;12.32;3.05;;;;;;;24.05;100.00;102143.25;5223009;28;20036;-71
2022/06/10 10:09:55;;;;;;;11.90;3.47;;;;;;;24.68;100.00;102148.53;5221843;28;20025;-71
2022/06/10 10:12:42;;;;;;;13.50;2.88;;;;;;;24.44;100.00;102144.78;5222143;28;20029;-71
2022/06/10 10:15:35;;;;;;;14.70;3.30;;;;;;;24.39;100.00;102141.06;5221377;28;20027;-71
2022/06/10 10:18:41;;;;;;;11.77;3.40;;;;;;;24.07;100.00;102137.56;5207763;28;20029;-71
2022/06/10 10:21:17;;;;;;;12.65;2.72;;;;;;;24.56;100.00;102135.81;5221948;28;20044;-71
2022/06/10 10:23:50;;;;;;;11.45;2.72;;;;;;;24.99;100.00;102132.94;5222127;28;20502;-71
2022/06/10 10:26:27;;;;;;;13.43;3.30;;;;;;;24.84;100.00;102136.09;5216495;28;20017;-71
2022/06/10 10:29:01;;;;;;;10.55;2.88;;;;;;;24.33;100.00;102128.22;5222328;28;20532;-71
2022/06/10 10:31:38;;;;;;;12.88;2.97;;;;;;;24.28;100.00;102131.63;5221951;28;20435;-71
2022/06/10 10:34:19;;;;;;;7.85;2.25;;;;;;;23.43;100.00;102137.56;5208309;28;20483;-71
2022/06/10 10:36:56;;;;;;;13.00;2.80;;;;;;;23.96;100.00;102131.75;5222058;28;20271;-71
2022/06/10 10:39:32;;;;;;;8.18;2.65;;;;;;;24.38;100.00;102129.25;5217188;28;20029;-71
2022/06/10 10:42:20;;;;;;;12.75;2.90;;;;;;;24.25;100.00;102129.38;5201274;28;20056;-71
2022/06/10 10:45:01;;;;;;;14.52;3.08;;;;;;;24.53;100.00;102128.88;5220383;28;20029;-71
2022/06/10 10:47:35;;;;;;;7.93;3.13;;;;;;;24.45;100.00;102121.81;5221201;28;20444;-71
2022/06/10 10:50:16;;;;;;;13.68;3.00;;;;;;;23.90;100.00;102126.31;5220880;28;20103;-71
2022/06/10 10:52:48;;;;;;;12.45;2.63;;;;;;;24.09;100.00;102135.41;5210561;28;20038;-72
2022/06/10 10:55:18;;;;;;;16.05;3.40;;;;;;;23.97;100.00;102121.59;5215348;28;20029;-72
2022/06/10 10:58:08;;;;;;;12.45;2.75;;;;;;;24.49;100.00;102124.91;5209389;28;20021;-72
2022/06/10 11:00:43;;;;;;;12.90;3.85;;;;;;;25.01;100.00;102122.59;5218245;28;20029;-72
2022/06/10 11:03:28;;;;;;;13.02;3.42;;;;;;;24.98;100.00;102121.13;5212585;28;20068;-72
2022/06/10 11:06:02;;;;;;;12.43;3.80;;;;;;;25.14;100.00;102121.59;5209847;28;20025;-73
2022/06/10 11:08:36;;;;;;;16.80;3.53;;;;;;;24.68;100.00;102125.75;5208883;28;20455;-72
2022/06/10 11:11:29;;;;;;;17.23;3.20;;;;;;;25.09;100.00;102119.53;5222738;28;20391;-72
2022/06/10 11:14:04;;;;;;;12.45;3.22;;;;;;;24.42;100.00;102121.41;5209856;28;20029;-73
2022/06/10 11:16:39;;;;;;;8.93;3.13;;;;;;;24.64;100.00;102122.63;5219659;28;20021;-72
2022/06/10 11:19:48;;;;;;;9.48;3.20;;;;;;;24.98;100.00;102123.06;5218028;28;20025;-72
2022/06/10 11:22:38;;;;;;;14.65;3.78;;;;;;;25.07;100.00;102115.38;5212990;28;20395;-72
2022/06/10 11:25:14;;;;;;;9.90;3.47;;;;;;;25.08;100.00;102122.53;5220379;28;20387;-73
2022/06/10 11:28:15;;;;;;;18.58;4.60;;;;;;;24.40;100.00;102121.66;5210340;28;20026;-72
2022/06/10 11:30:49;;;;;;;9.88;3.83;;;;;;;24.34;100.00;102111.53;5220816;28;20025;-71
2022/06/10 11:33:26;;;;;;;15.10;4.25;;;;;;;24.51;100.00;102109.91;5210752;28;20482;-72
2022/06/10 11:36:28;;;;;;;14.43;4.20;;;;;;;24.67;100.00;102108.44;5210168;28;20542;-73
2022/06/10 11:39:34;;;;;;;11.75;4.25;;;;;;;24.51;100.00;102112.66;5214953;28;21060;-72
2022/06/10 11:45:16;;;;;;;15.73;4.07;;;;;;;23.98;100.00;102096.72;5221574;28;19908;-72
2022/06/10 11:47:55;;;;;;;13.70;3.63;;;;;;;23.63;100.00;102099.13;5219029;28;20102;-71
2022/06/10 11:50:33;;;;;;;18.25;4.68;;;;;;;23.15;100.00;102099.66;5212502;28;20125;-72
2022/06/10 11:53:13;;;;;;;12.98;4.78;;;;;;;23.05;100.00;102101.19;5217289;28;20029;-71
2022/06/10 11:55:46;;;;;;;17.27;4.00;;;;;;;23.28;100.00;102093.22;5216914;28;20581;-72
2022/06/10 12:01:20;;;;;;;15.75;4.75;;;;;;;24.29;100.00;102086.69;5212633;28;20030;-72
2022/06/10 12:03:59;;;;;;;12.48;3.83;;;;;;;24.62;100.00;102080.03;5205024;28;20024;-72
2022/06/10 12:06:38;;;;;;;11.55;3.13;;;;;;;24.75;100.00;102068.88;5204900;28;20029;-73
2022/06/10 12:09:17;;;;;;;13.48;3.85;;;;;;;24.96;100.00;102076.63;5203858;28;20131;-72
2022/06/10 12:11:54;;;;;;;8.95;3.40;;;;;;;24.86;100.00;102073.59;5204346;28;20025;-72
2022/06/10 12:14:32;;;;;;;11.68;3.53;;;;;;;25.42;100.00;102060.56;5204215;28;20032;-72
2022/06/10 12:17:11;;;;;;;8.60;3.00;;;;;;;25.74;100.00;102061.88;5214427;28;20021;-74
2022/06/10 12:20:16;;;;;;;7.43;2.90;;;;;;;25.64;100.00;102058.91;5211922;28;20021;-72
2022/06/10 12:22:47;;;;;;;10.65;3.10;;;;;;;25.97;100.00;102060.28;5208055;28;20025;-72